sensor_id;sensor_type;location;lat;lon;timestamp;temperature;humidity
68943;DHT22;60852;52.190;4.422;2023-04-15T00:00:32;11.22;60.11
68943;DHT22;60852;52.190;4.422;2023-04-15T00:02:58;11.09;60.45
68943;DHT22;60852;52.190;4.422;2023-04-15T00:05:23;11.05;60.76
68943;DHT22;60852;52.190;4.422;2023-04-15T00:07:49;11.02;60.94
68943;DHT22;60852;52.190;4.422;2023-04-15T00:10:14;11.01;61.14
68943;DHT22;60852;52.190;4.422;2023-04-15T00:12:39;10.96;61.19
68943;DHT22;60852;52.190;4.422;2023-04-15T00:15:07;10.91;61.48
68943;DHT22;60852;52.190;4.422;2023-04-15T00:17:33;10.85;61.60
68943;DHT22;60852;52.190;4.422;2023-04-15T00:19:59;10.83;61.73
68943;DHT22;60852;52.190;4.422;2023-04-15T00:22:26;10.81;61.58
68943;DHT22;60852;52.190;4.422;2023-04-15T00:24:52;10.73;61.85
68943;DHT22;60852;52.190;4.422;2023-04-15T00:27:18;10.69;61.92
68943;DHT22;60852;52.190;4.422;2023-04-15T00:29:43;10.68;61.86
68943;DHT22;60852;52.190;4.422;2023-04-15T00:32:09;10.64;61.70
68943;DHT22;60852;52.190;4.422;2023-04-15T00:34:35;10.65;61.87
68943;DHT22;60852;52.190;4.422;2023-04-15T00:37:01;10.61;61.73
68943;DHT22;60852;52.190;4.422;2023-04-15T00:39:26;10.61;61.73
68943;DHT22;60852;52.190;4.422;2023-04-15T00:41:52;10.58;61.52
68943;DHT22;60852;52.190;4.422;2023-04-15T00:44:18;10.54;61.77
68943;DHT22;60852;52.190;4.422;2023-04-15T00:46:44;10.58;61.68
68943;DHT22;60852;52.190;4.422;2023-04-15T00:49:11;10.61;61.43
68943;DHT22;60852;52.190;4.422;2023-04-15T00:51:37;10.61;61.23
68943;DHT22;60852;52.190;4.422;2023-04-15T00:54:03;10.68;60.95
68943;DHT22;60852;52.190;4.422;2023-04-15T00:56:29;10.68;60.67
68943;DHT22;60852;52.190;4.422;2023-04-15T00:58:57;10.69;60.66
68943;DHT22;60852;52.190;4.422;2023-04-15T01:01:25;10.67;60.55
68943;DHT22;60852;52.190;4.422;2023-04-15T01:03:51;10.62;60.78
68943;DHT22;60852;52.190;4.422;2023-04-15T01:06:17;10.54;60.87
68943;DHT22;60852;52.190;4.422;2023-04-15T01:08:43;10.55;61.05
68943;DHT22;60852;52.190;4.422;2023-04-15T01:11:13;10.51;61.23
68943;DHT22;60852;52.190;4.422;2023-04-15T01:13:39;10.41;61.30
68943;DHT22;60852;52.190;4.422;2023-04-15T01:16:05;10.40;61.58
68943;DHT22;60852;52.190;4.422;2023-04-15T01:18:32;10.38;61.36
68943;DHT22;60852;52.190;4.422;2023-04-15T01:20:59;10.36;62.29
68943;DHT22;60852;52.190;4.422;2023-04-15T01:23:26;10.25;61.78
68943;DHT22;60852;52.190;4.422;2023-04-15T01:25:52;10.23;61.92
68943;DHT22;60852;52.190;4.422;2023-04-15T01:28:19;10.21;62.27
68943;DHT22;60852;52.190;4.422;2023-04-15T01:30:44;10.16;62.18
68943;DHT22;60852;52.190;4.422;2023-04-15T01:33:10;10.06;62.50
68943;DHT22;60852;52.190;4.422;2023-04-15T01:35:35;10.03;62.91
68943;DHT22;60852;52.190;4.422;2023-04-15T01:38:05;9.97;63.03
68943;DHT22;60852;52.190;4.422;2023-04-15T01:40:31;10.00;63.14
68943;DHT22;60852;52.190;4.422;2023-04-15T01:42:56;10.00;63.31
68943;DHT22;60852;52.190;4.422;2023-04-15T01:45:22;9.93;63.63
68943;DHT22;60852;52.190;4.422;2023-04-15T01:47:47;9.89;64.02
68943;DHT22;60852;52.190;4.422;2023-04-15T01:50:13;9.90;64.30
68943;DHT22;60852;52.190;4.422;2023-04-15T01:52:40;9.86;64.66
68943;DHT22;60852;52.190;4.422;2023-04-15T01:55:06;9.83;64.83
68943;DHT22;60852;52.190;4.422;2023-04-15T01:57:33;9.82;65.15
68943;DHT22;60852;52.190;4.422;2023-04-15T01:59:58;9.81;65.43
68943;DHT22;60852;52.190;4.422;2023-04-15T02:02:24;9.81;65.54
68943;DHT22;60852;52.190;4.422;2023-04-15T02:04:50;9.72;65.79
68943;DHT22;60852;52.190;4.422;2023-04-15T02:07:15;9.69;65.94
68943;DHT22;60852;52.190;4.422;2023-04-15T02:09:41;9.69;65.96
68943;DHT22;60852;52.190;4.422;2023-04-15T02:12:08;9.73;66.01
68943;DHT22;60852;52.190;4.422;2023-04-15T02:14:33;9.69;65.93
68943;DHT22;60852;52.190;4.422;2023-04-15T02:16:59;9.66;66.15
68943;DHT22;60852;52.190;4.422;2023-04-15T02:19:34;9.65;66.19
68943;DHT22;60852;52.190;4.422;2023-04-15T02:22:00;9.61;66.22
68943;DHT22;60852;52.190;4.422;2023-04-15T02:24:27;9.56;66.27
68943;DHT22;60852;52.190;4.422;2023-04-15T02:26:53;9.51;66.51
68943;DHT22;60852;52.190;4.422;2023-04-15T02:29:18;9.48;66.60
68943;DHT22;60852;52.190;4.422;2023-04-15T02:31:44;9.46;66.59
68943;DHT22;60852;52.190;4.422;2023-04-15T02:34:09;9.45;66.48
68943;DHT22;60852;52.190;4.422;2023-04-15T02:36:35;9.45;66.68
68943;DHT22;60852;52.190;4.422;2023-04-15T02:39:01;9.49;66.79
68943;DHT22;60852;52.190;4.422;2023-04-15T02:41:28;9.48;66.99
68943;DHT22;60852;52.190;4.422;2023-04-15T02:43:54;9.42;67.15
68943;DHT22;60852;52.190;4.422;2023-04-15T02:46:20;9.38;67.29
68943;DHT22;60852;52.190;4.422;2023-04-15T02:48:47;9.32;67.50
68943;DHT22;60852;52.190;4.422;2023-04-15T02:51:17;9.27;67.77
68943;DHT22;60852;52.190;4.422;2023-04-15T02:53:47;9.24;67.86
68943;DHT22;60852;52.190;4.422;2023-04-15T02:56:13;9.25;67.90
68943;DHT22;60852;52.190;4.422;2023-04-15T02:58:40;9.25;67.91
68943;DHT22;60852;52.190;4.422;2023-04-15T03:01:06;9.28;67.85
68943;DHT22;60852;52.190;4.422;2023-04-15T03:03:33;9.23;67.87
68943;DHT22;60852;52.190;4.422;2023-04-15T03:05:58;9.17;68.06
68943;DHT22;60852;52.190;4.422;2023-04-15T03:08:24;9.15;68.15
68943;DHT22;60852;52.190;4.422;2023-04-15T03:10:49;9.14;68.30
68943;DHT22;60852;52.190;4.422;2023-04-15T03:13:17;9.15;68.11
68943;DHT22;60852;52.190;4.422;2023-04-15T03:15:42;9.15;68.18
68943;DHT22;60852;52.190;4.422;2023-04-15T03:18:08;9.10;68.26
68943;DHT22;60852;52.190;4.422;2023-04-15T03:20:33;9.11;68.27
68943;DHT22;60852;52.190;4.422;2023-04-15T03:23:00;9.14;68.32
68943;DHT22;60852;52.190;4.422;2023-04-15T03:25:25;9.17;68.21
68943;DHT22;60852;52.190;4.422;2023-04-15T03:27:51;9.23;68.26
68943;DHT22;60852;52.190;4.422;2023-04-15T03:30:17;9.20;68.37
68943;DHT22;60852;52.190;4.422;2023-04-15T03:32:42;9.14;68.53
68943;DHT22;60852;52.190;4.422;2023-04-15T03:35:08;9.15;68.55
68943;DHT22;60852;52.190;4.422;2023-04-15T03:37:33;9.18;68.58
68943;DHT22;60852;52.190;4.422;2023-04-15T03:39:59;9.21;68.56
68943;DHT22;60852;52.190;4.422;2023-04-15T03:42:24;9.27;68.55
68943;DHT22;60852;52.190;4.422;2023-04-15T03:44:50;9.27;68.63
68943;DHT22;60852;52.190;4.422;2023-04-15T03:47:15;9.32;68.63
68943;DHT22;60852;52.190;4.422;2023-04-15T03:49:41;9.31;68.81
68943;DHT22;60852;52.190;4.422;2023-04-15T03:52:06;9.31;68.88
68943;DHT22;60852;52.190;4.422;2023-04-15T03:54:32;9.35;68.95
68943;DHT22;60852;52.190;4.422;2023-04-15T03:56:57;9.32;69.11
68943;DHT22;60852;52.190;4.422;2023-04-15T03:59:23;9.25;69.50
68943;DHT22;60852;52.190;4.422;2023-04-15T04:01:48;9.20;69.81
68943;DHT22;60852;52.190;4.422;2023-04-15T04:04:13;9.17;69.93
68943;DHT22;60852;52.190;4.422;2023-04-15T04:06:40;9.18;70.06
68943;DHT22;60852;52.190;4.422;2023-04-15T04:09:05;9.25;70.00
68943;DHT22;60852;52.190;4.422;2023-04-15T04:11:31;9.18;70.16
68943;DHT22;60852;52.190;4.422;2023-04-15T04:13:57;9.14;70.39
68943;DHT22;60852;52.190;4.422;2023-04-15T04:16:23;9.10;70.56
68943;DHT22;60852;52.190;4.422;2023-04-15T04:18:48;9.11;70.75
68943;DHT22;60852;52.190;4.422;2023-04-15T04:21:15;9.13;70.87
68943;DHT22;60852;52.190;4.422;2023-04-15T04:23:40;9.08;71.09
68943;DHT22;60852;52.190;4.422;2023-04-15T04:26:07;9.04;71.17
68943;DHT22;60852;52.190;4.422;2023-04-15T04:28:32;9.05;71.28
68943;DHT22;60852;52.190;4.422;2023-04-15T04:30:59;8.97;71.54
68943;DHT22;60852;52.190;4.422;2023-04-15T04:33:25;8.88;71.97
68943;DHT22;60852;52.190;4.422;2023-04-15T04:35:50;8.83;72.35
68943;DHT22;60852;52.190;4.422;2023-04-15T04:38:16;8.80;72.57
68943;DHT22;60852;52.190;4.422;2023-04-15T04:40:41;8.79;72.72
68943;DHT22;60852;52.190;4.422;2023-04-15T04:43:07;8.77;72.89
68943;DHT22;60852;52.190;4.422;2023-04-15T04:45:32;8.79;72.94
68943;DHT22;60852;52.190;4.422;2023-04-15T04:47:58;8.76;73.12
68943;DHT22;60852;52.190;4.422;2023-04-15T04:50:23;8.70;73.39
68943;DHT22;60852;52.190;4.422;2023-04-15T04:52:48;8.67;73.59
68943;DHT22;60852;52.190;4.422;2023-04-15T04:55:14;8.63;73.79
68943;DHT22;60852;52.190;4.422;2023-04-15T04:57:40;8.63;74.04
68943;DHT22;60852;52.190;4.422;2023-04-15T05:00:07;8.59;74.12
68943;DHT22;60852;52.190;4.422;2023-04-15T05:02:33;8.62;74.14
68943;DHT22;60852;52.190;4.422;2023-04-15T05:04:59;8.62;74.19
68943;DHT22;60852;52.190;4.422;2023-04-15T05:07:24;8.59;74.25
68943;DHT22;60852;52.190;4.422;2023-04-15T05:09:50;8.59;74.51
68943;DHT22;60852;52.190;4.422;2023-04-15T05:12:15;8.57;74.50
68943;DHT22;60852;52.190;4.422;2023-04-15T05:14:43;8.56;74.63
68943;DHT22;60852;52.190;4.422;2023-04-15T05:17:09;8.56;74.71
68943;DHT22;60852;52.190;4.422;2023-04-15T05:19:35;8.67;74.49
68943;DHT22;60852;52.190;4.422;2023-04-15T05:22:01;9.01;73.99
68943;DHT22;60852;52.190;4.422;2023-04-15T05:24:26;9.36;72.53
68943;DHT22;60852;52.190;4.422;2023-04-15T05:26:52;9.72;71.35
68943;DHT22;60852;52.190;4.422;2023-04-15T05:29:17;9.65;71.23
68943;DHT22;60852;52.190;4.422;2023-04-15T05:31:43;9.96;70.49
68943;DHT22;60852;52.190;4.422;2023-04-15T05:34:08;10.18;69.47
68943;DHT22;60852;52.190;4.422;2023-04-15T05:36:34;10.18;69.64
68943;DHT22;60852;52.190;4.422;2023-04-15T05:39:00;10.14;69.54
68943;DHT22;60852;52.190;4.422;2023-04-15T05:41:26;9.55;71.62
68943;DHT22;60852;52.190;4.422;2023-04-15T05:43:51;9.21;73.07
68943;DHT22;60852;52.190;4.422;2023-04-15T05:46:16;9.08;73.76
68943;DHT22;60852;52.190;4.422;2023-04-15T05:48:42;9.10;74.09
68943;DHT22;60852;52.190;4.422;2023-04-15T05:51:08;9.17;74.12
68943;DHT22;60852;52.190;4.422;2023-04-15T05:53:33;9.17;74.05
68943;DHT22;60852;52.190;4.422;2023-04-15T05:55:59;9.14;74.31
68943;DHT22;60852;52.190;4.422;2023-04-15T05:58:24;9.15;74.43
68943;DHT22;60852;52.190;4.422;2023-04-15T06:00:50;9.17;74.63
68943;DHT22;60852;52.190;4.422;2023-04-15T06:03:16;9.18;74.65
68943;DHT22;60852;52.190;4.422;2023-04-15T06:05:42;9.23;74.65
68943;DHT22;60852;52.190;4.422;2023-04-15T06:08:08;9.28;74.68
68943;DHT22;60852;52.190;4.422;2023-04-15T06:10:34;9.31;74.71
68943;DHT22;60852;52.190;4.422;2023-04-15T06:13:02;9.36;74.56
68943;DHT22;60852;52.190;4.422;2023-04-15T06:15:28;9.41;74.52
68943;DHT22;60852;52.190;4.422;2023-04-15T06:17:54;9.51;74.54
68943;DHT22;60852;52.190;4.422;2023-04-15T06:20:20;9.46;74.57
68943;DHT22;60852;52.190;4.422;2023-04-15T06:22:45;9.51;74.63
68943;DHT22;60852;52.190;4.422;2023-04-15T06:25:11;9.61;74.33
68943;DHT22;60852;52.190;4.422;2023-04-15T06:27:36;9.62;74.27
68943;DHT22;60852;52.190;4.422;2023-04-15T06:30:02;9.72;74.18
68943;DHT22;60852;52.190;4.422;2023-04-15T06:32:28;9.85;74.00
68943;DHT22;60852;52.190;4.422;2023-04-15T06:34:54;9.99;73.69
68943;DHT22;60852;52.190;4.422;2023-04-15T06:37:19;10.13;73.16
68943;DHT22;60852;52.190;4.422;2023-04-15T06:39:45;10.10;72.55
68943;DHT22;60852;52.190;4.422;2023-04-15T06:42:10;10.20;72.67
68943;DHT22;60852;52.190;4.422;2023-04-15T06:44:36;10.24;72.07
68943;DHT22;60852;52.190;4.422;2023-04-15T06:47:02;10.27;72.02
68943;DHT22;60852;52.190;4.422;2023-04-15T06:49:28;10.42;72.00
68943;DHT22;60852;52.190;4.422;2023-04-15T06:51:54;10.44;71.75
68943;DHT22;60852;52.190;4.422;2023-04-15T06:54:20;10.50;71.93
68943;DHT22;60852;52.190;4.422;2023-04-15T06:56:45;10.62;71.22
68943;DHT22;60852;52.190;4.422;2023-04-15T06:59:11;10.65;71.09
68943;DHT22;60852;52.190;4.422;2023-04-15T07:01:37;10.68;71.07
68943;DHT22;60852;52.190;4.422;2023-04-15T07:04:02;10.78;70.65
68943;DHT22;60852;52.190;4.422;2023-04-15T07:06:28;10.75;69.99
68943;DHT22;60852;52.190;4.422;2023-04-15T07:08:53;10.65;70.37
68943;DHT22;60852;52.190;4.422;2023-04-15T07:11:19;10.69;70.48
68943;DHT22;60852;52.190;4.422;2023-04-15T07:13:45;10.83;70.34
68943;DHT22;60852;52.190;4.422;2023-04-15T07:16:11;10.96;69.89
68943;DHT22;60852;52.190;4.422;2023-04-15T07:18:36;10.93;69.12
68943;DHT22;60852;52.190;4.422;2023-04-15T07:21:02;10.88;69.37
68943;DHT22;60852;52.190;4.422;2023-04-15T07:23:27;10.99;69.54
68943;DHT22;60852;52.190;4.422;2023-04-15T07:25:53;11.09;69.36
68943;DHT22;60852;52.190;4.422;2023-04-15T07:28:19;11.22;68.95
68943;DHT22;60852;52.190;4.422;2023-04-15T07:30:44;11.36;68.57
68943;DHT22;60852;52.190;4.422;2023-04-15T07:33:10;11.46;68.26
68943;DHT22;60852;52.190;4.422;2023-04-15T07:35:36;11.50;67.91
68943;DHT22;60852;52.190;4.422;2023-04-15T07:38:02;11.54;68.23
68943;DHT22;60852;52.190;4.422;2023-04-15T07:40:27;11.73;68.08
68943;DHT22;60852;52.190;4.422;2023-04-15T07:42:54;11.81;67.10
68943;DHT22;60852;52.190;4.422;2023-04-15T07:45:21;11.88;67.22
68943;DHT22;60852;52.190;4.422;2023-04-15T07:47:46;12.02;66.87
68943;DHT22;60852;52.190;4.422;2023-04-15T07:50:12;12.04;66.11
68943;DHT22;60852;52.190;4.422;2023-04-15T07:52:38;12.06;66.31
68943;DHT22;60852;52.190;4.422;2023-04-15T07:55:05;12.18;66.33
68943;DHT22;60852;52.190;4.422;2023-04-15T07:57:33;12.06;66.24
68943;DHT22;60852;52.190;4.422;2023-04-15T08:00:00;12.02;66.91
68943;DHT22;60852;52.190;4.422;2023-04-15T08:02:25;11.94;66.26
68943;DHT22;60852;52.190;4.422;2023-04-15T08:04:51;11.90;67.07
68943;DHT22;60852;52.190;4.422;2023-04-15T08:07:18;12.04;66.65
68943;DHT22;60852;52.190;4.422;2023-04-15T08:09:44;12.12;65.28
68943;DHT22;60852;52.190;4.422;2023-04-15T08:12:09;12.12;65.16
68943;DHT22;60852;52.190;4.422;2023-04-15T08:14:38;12.17;65.15
68943;DHT22;60852;52.190;4.422;2023-04-15T08:17:03;12.19;65.04
68943;DHT22;60852;52.190;4.422;2023-04-15T08:19:30;12.25;65.22
68943;DHT22;60852;52.190;4.422;2023-04-15T08:21:55;12.38;65.09
68943;DHT22;60852;52.190;4.422;2023-04-15T08:24:21;12.30;65.12
68943;DHT22;60852;52.190;4.422;2023-04-15T08:26:47;12.39;65.25
68943;DHT22;60852;52.190;4.422;2023-04-15T08:29:12;12.38;65.15
68943;DHT22;60852;52.190;4.422;2023-04-15T08:31:38;12.32;65.27
68943;DHT22;60852;52.190;4.422;2023-04-15T08:34:03;12.40;64.20
68943;DHT22;60852;52.190;4.422;2023-04-15T08:36:29;12.50;64.10
68943;DHT22;60852;52.190;4.422;2023-04-15T08:38:56;12.52;64.12
68943;DHT22;60852;52.190;4.422;2023-04-15T08:41:24;12.49;63.23
68943;DHT22;60852;52.190;4.422;2023-04-15T08:43:57;12.46;63.49
68943;DHT22;60852;52.190;4.422;2023-04-15T08:46:22;12.55;63.29
68943;DHT22;60852;52.190;4.422;2023-04-15T08:48:48;12.67;62.98
68943;DHT22;60852;52.190;4.422;2023-04-15T08:51:16;12.86;62.65
68943;DHT22;60852;52.190;4.422;2023-04-15T08:53:43;12.80;60.73
68943;DHT22;60852;52.190;4.422;2023-04-15T08:56:11;12.67;62.16
68943;DHT22;60852;52.190;4.422;2023-04-15T08:58:38;12.69;60.68
68943;DHT22;60852;52.190;4.422;2023-04-15T09:01:04;12.60;60.65
68943;DHT22;60852;52.190;4.422;2023-04-15T09:03:30;12.55;61.21
68943;DHT22;60852;52.190;4.422;2023-04-15T09:05:56;12.57;60.93
68943;DHT22;60852;52.190;4.422;2023-04-15T09:08:22;12.69;61.28
68943;DHT22;60852;52.190;4.422;2023-04-15T09:10:47;12.77;60.51
68943;DHT22;60852;52.190;4.422;2023-04-15T09:13:13;12.66;60.08
68943;DHT22;60852;52.190;4.422;2023-04-15T09:15:40;12.75;58.64
68943;DHT22;60852;52.190;4.422;2023-04-15T09:18:05;12.77;58.83
68943;DHT22;60852;52.190;4.422;2023-04-15T09:20:38;12.75;59.51
68943;DHT22;60852;52.190;4.422;2023-04-15T09:23:11;12.90;59.31
68943;DHT22;60852;52.190;4.422;2023-04-15T09:25:39;12.90;59.87
68943;DHT22;60852;52.190;4.422;2023-04-15T09:28:07;12.91;59.75
68943;DHT22;60852;52.190;4.422;2023-04-15T09:30:33;13.11;57.00
68943;DHT22;60852;52.190;4.422;2023-04-15T09:33:01;13.04;56.50
68943;DHT22;60852;52.190;4.422;2023-04-15T09:35:27;13.14;56.64
68943;DHT22;60852;52.190;4.422;2023-04-15T09:38:04;13.17;56.54
68943;DHT22;60852;52.190;4.422;2023-04-15T09:40:40;13.24;53.86
68943;DHT22;60852;52.190;4.422;2023-04-15T09:43:08;13.28;52.64
68943;DHT22;60852;52.190;4.422;2023-04-15T09:45:34;13.11;52.06
68943;DHT22;60852;52.190;4.422;2023-04-15T09:48:20;13.17;52.00
68943;DHT22;60852;52.190;4.422;2023-04-15T09:50:48;13.18;51.96
68943;DHT22;60852;52.190;4.422;2023-04-15T09:53:21;13.29;52.76
68943;DHT22;60852;52.190;4.422;2023-04-15T09:55:57;13.12;54.56
68943;DHT22;60852;52.190;4.422;2023-04-15T09:58:26;13.11;55.31
68943;DHT22;60852;52.190;4.422;2023-04-15T10:00:54;13.18;55.85
68943;DHT22;60852;52.190;4.422;2023-04-15T10:03:28;13.19;53.30
68943;DHT22;60852;52.190;4.422;2023-04-15T10:05:57;13.19;51.23
68943;DHT22;60852;52.190;4.422;2023-04-15T10:08:26;13.28;50.31
68943;DHT22;60852;52.190;4.422;2023-04-15T10:10:52;13.42;49.28
68943;DHT22;60852;52.190;4.422;2023-04-15T10:13:21;14.12;48.87
68943;DHT22;60852;52.190;4.422;2023-04-15T10:15:59;14.55;48.45
68943;DHT22;60852;52.190;4.422;2023-04-15T10:18:33;14.72;48.07
68943;DHT22;60852;52.190;4.422;2023-04-15T10:21:00;14.82;49.73
68943;DHT22;60852;52.190;4.422;2023-04-15T10:23:26;15.03;49.81
68943;DHT22;60852;52.190;4.422;2023-04-15T10:25:52;15.07;50.70
68943;DHT22;60852;52.190;4.422;2023-04-15T10:28:21;15.03;50.19
68943;DHT22;60852;52.190;4.422;2023-04-15T10:30:49;14.95;50.77
68943;DHT22;60852;52.190;4.422;2023-04-15T10:33:20;14.69;47.97
68943;DHT22;60852;52.190;4.422;2023-04-15T10:35:47;14.88;46.56
68943;DHT22;60852;52.190;4.422;2023-04-15T10:38:34;15.16;47.78
68943;DHT22;60852;52.190;4.422;2023-04-15T10:43:39;14.74;50.03
68943;DHT22;60852;52.190;4.422;2023-04-15T10:46:07;14.71;50.97
68943;DHT22;60852;52.190;4.422;2023-04-15T10:48:32;14.99;51.65
68943;DHT22;60852;52.190;4.422;2023-04-15T10:51:01;15.25;50.52
68943;DHT22;60852;52.190;4.422;2023-04-15T10:53:30;15.32;50.52
68943;DHT22;60852;52.190;4.422;2023-04-15T10:55:57;15.26;49.20
68943;DHT22;60852;52.190;4.422;2023-04-15T10:58:24;15.64;47.48
68943;DHT22;60852;52.190;4.422;2023-04-15T11:00:51;15.50;51.68
68943;DHT22;60852;52.190;4.422;2023-04-15T11:03:38;15.19;53.89
68943;DHT22;60852;52.190;4.422;2023-04-15T11:06:06;14.91;54.93
68943;DHT22;60852;52.190;4.422;2023-04-15T11:08:57;14.85;55.78
68943;DHT22;60852;52.190;4.422;2023-04-15T11:14:26;14.49;58.74
68943;DHT22;60852;52.190;4.422;2023-04-15T11:16:51;14.10;60.72
68943;DHT22;60852;52.190;4.422;2023-04-15T11:19:17;13.90;62.12
68943;DHT22;60852;52.190;4.422;2023-04-15T11:21:42;14.20;60.52
68943;DHT22;60852;52.190;4.422;2023-04-15T11:24:08;14.21;59.86
68943;DHT22;60852;52.190;4.422;2023-04-15T11:26:33;14.06;60.47
68943;DHT22;60852;52.190;4.422;2023-04-15T11:28:59;13.99;60.51
68943;DHT22;60852;52.190;4.422;2023-04-15T11:31:26;13.99;60.70
68943;DHT22;60852;52.190;4.422;2023-04-15T11:33:54;14.07;60.69
68943;DHT22;60852;52.190;4.422;2023-04-15T11:36:25;14.17;60.34
68943;DHT22;60852;52.190;4.422;2023-04-15T11:38:51;14.23;60.46
68943;DHT22;60852;52.190;4.422;2023-04-15T11:41:21;14.21;59.96
68943;DHT22;60852;52.190;4.422;2023-04-15T11:43:47;14.12;61.19
68943;DHT22;60852;52.190;4.422;2023-04-15T11:46:12;14.07;62.61
68943;DHT22;60852;52.190;4.422;2023-04-15T11:48:43;14.10;62.47
68943;DHT22;60852;52.190;4.422;2023-04-15T11:51:09;13.93;61.44
68943;DHT22;60852;52.190;4.422;2023-04-15T11:53:46;13.89;61.44
68943;DHT22;60852;52.190;4.422;2023-04-15T11:56:23;13.73;62.29
68943;DHT22;60852;52.190;4.422;2023-04-15T11:58:55;13.52;62.64
68943;DHT22;60852;52.190;4.422;2023-04-15T12:01:39;13.55;63.02
68943;DHT22;60852;52.190;4.422;2023-04-15T12:04:17;13.34;63.20
68943;DHT22;60852;52.190;4.422;2023-04-15T12:06:47;13.34;64.03
68943;DHT22;60852;52.190;4.422;2023-04-15T12:09:17;13.34;65.25
68943;DHT22;60852;52.190;4.422;2023-04-15T12:16:47;12.83;69.04
68943;DHT22;60852;52.190;4.422;2023-04-15T12:19:28;12.76;69.40
68943;DHT22;60852;52.190;4.422;2023-04-15T12:22:02;12.67;69.60
68943;DHT22;60852;52.190;4.422;2023-04-15T12:24:33;12.75;70.03
68943;DHT22;60852;52.190;4.422;2023-04-15T12:27:12;12.86;69.54
68943;DHT22;60852;52.190;4.422;2023-04-15T12:29:40;12.67;69.27
68943;DHT22;60852;52.190;4.422;2023-04-15T12:34:39;12.76;68.92
68943;DHT22;60852;52.190;4.422;2023-04-15T12:37:08;12.66;69.38
68943;DHT22;60852;52.190;4.422;2023-04-15T12:39:39;12.64;69.31
68943;DHT22;60852;52.190;4.422;2023-04-15T12:42:06;12.53;69.12
68943;DHT22;60852;52.190;4.422;2023-04-15T12:44:32;12.59;69.07
68943;DHT22;60852;52.190;4.422;2023-04-15T12:46:59;12.57;69.02
68943;DHT22;60852;52.190;4.422;2023-04-15T12:49:25;12.49;69.50
68943;DHT22;60852;52.190;4.422;2023-04-15T12:51:53;12.50;69.80
68943;DHT22;60852;52.190;4.422;2023-04-15T12:54:19;12.59;69.74
68943;DHT22;60852;52.190;4.422;2023-04-15T12:56:47;12.59;69.74
68943;DHT22;60852;52.190;4.422;2023-04-15T12:59:14;12.55;69.35
68943;DHT22;60852;52.190;4.422;2023-04-15T13:01:40;12.63;69.11
68943;DHT22;60852;52.190;4.422;2023-04-15T13:04:06;12.56;69.25
68943;DHT22;60852;52.190;4.422;2023-04-15T13:06:31;12.66;68.90
68943;DHT22;60852;52.190;4.422;2023-04-15T13:09:01;12.88;67.96
68943;DHT22;60852;52.190;4.422;2023-04-15T13:11:28;12.73;68.62
68943;DHT22;60852;52.190;4.422;2023-04-15T13:13:59;12.73;67.70
68943;DHT22;60852;52.190;4.422;2023-04-15T13:16:25;12.75;67.95
68943;DHT22;60852;52.190;4.422;2023-04-15T13:18:51;12.64;67.91
68943;DHT22;60852;52.190;4.422;2023-04-15T13:21:17;12.57;68.24
68943;DHT22;60852;52.190;4.422;2023-04-15T13:23:43;12.70;67.97
68943;DHT22;60852;52.190;4.422;2023-04-15T13:26:09;12.57;67.91
68943;DHT22;60852;52.190;4.422;2023-04-15T13:28:34;12.61;67.59
68943;DHT22;60852;52.190;4.422;2023-04-15T13:31:00;12.52;67.92
68943;DHT22;60852;52.190;4.422;2023-04-15T13:33:26;12.42;68.17
68943;DHT22;60852;52.190;4.422;2023-04-15T13:35:52;12.48;67.85
68943;DHT22;60852;52.190;4.422;2023-04-15T13:38:17;12.63;67.85
68943;DHT22;60852;52.190;4.422;2023-04-15T13:40:43;12.48;66.49
68943;DHT22;60852;52.190;4.422;2023-04-15T13:43:08;12.40;67.32
68943;DHT22;60852;52.190;4.422;2023-04-15T13:45:34;12.52;67.47
68943;DHT22;60852;52.190;4.422;2023-04-15T13:48:00;12.18;67.70
68943;DHT22;60852;52.190;4.422;2023-04-15T13:50:26;12.19;68.33
68943;DHT22;60852;52.190;4.422;2023-04-15T13:52:52;12.24;67.84
68943;DHT22;60852;52.190;4.422;2023-04-15T13:55:17;12.30;68.33
68943;DHT22;60852;52.190;4.422;2023-04-15T13:57:43;12.19;68.20
68943;DHT22;60852;52.190;4.422;2023-04-15T14:00:09;12.14;68.33
68943;DHT22;60852;52.190;4.422;2023-04-15T14:02:35;12.24;69.10
68943;DHT22;60852;52.190;4.422;2023-04-15T14:05:00;12.19;69.02
68943;DHT22;60852;52.190;4.422;2023-04-15T14:07:28;12.32;68.82
68943;DHT22;60852;52.190;4.422;2023-04-15T14:09:55;12.18;68.44
68943;DHT22;60852;52.190;4.422;2023-04-15T14:12:20;12.25;68.59
68943;DHT22;60852;52.190;4.422;2023-04-15T14:14:45;12.19;68.82
68943;DHT22;60852;52.190;4.422;2023-04-15T14:17:11;12.28;69.21
68943;DHT22;60852;52.190;4.422;2023-04-15T14:19:36;12.15;68.58
68943;DHT22;60852;52.190;4.422;2023-04-15T14:22:02;11.99;68.44
68943;DHT22;60852;52.190;4.422;2023-04-15T14:24:27;12.04;69.36
68943;DHT22;60852;52.190;4.422;2023-04-15T14:26:53;11.90;70.03
68943;DHT22;60852;52.190;4.422;2023-04-15T14:29:19;11.88;70.50
68943;DHT22;60852;52.190;4.422;2023-04-15T14:31:44;12.05;70.13
68943;DHT22;60852;52.190;4.422;2023-04-15T14:34:10;11.82;70.30
68943;DHT22;60852;52.190;4.422;2023-04-15T14:36:36;11.68;71.37
68943;DHT22;60852;52.190;4.422;2023-04-15T14:39:02;11.78;70.23
68943;DHT22;60852;52.190;4.422;2023-04-15T14:41:28;11.94;70.21
68943;DHT22;60852;52.190;4.422;2023-04-15T14:43:54;11.84;68.63
68943;DHT22;60852;52.190;4.422;2023-04-15T14:46:19;11.85;69.39
68943;DHT22;60852;52.190;4.422;2023-04-15T14:48:45;11.91;68.78
68943;DHT22;60852;52.190;4.422;2023-04-15T14:51:11;11.71;68.71
68943;DHT22;60852;52.190;4.422;2023-04-15T14:53:36;11.68;68.53
68943;DHT22;60852;52.190;4.422;2023-04-15T14:56:01;11.70;69.16
68943;DHT22;60852;52.190;4.422;2023-04-15T14:58:27;11.59;68.13
68943;DHT22;60852;52.190;4.422;2023-04-15T15:00:52;11.40;68.14
68943;DHT22;60852;52.190;4.422;2023-04-15T15:03:18;11.29;68.58
68943;DHT22;60852;52.190;4.422;2023-04-15T15:05:45;11.24;68.36
68943;DHT22;60852;52.190;4.422;2023-04-15T15:08:12;11.34;68.62
68943;DHT22;60852;52.190;4.422;2023-04-15T15:10:38;11.24;68.59
68943;DHT22;60852;52.190;4.422;2023-04-15T15:13:09;11.13;69.21
68943;DHT22;60852;52.190;4.422;2023-04-15T15:15:36;11.18;69.54
68943;DHT22;60852;52.190;4.422;2023-04-15T15:18:02;11.26;68.15
68943;DHT22;60852;52.190;4.422;2023-04-15T15:20:28;11.24;68.89
68943;DHT22;60852;52.190;4.422;2023-04-15T15:22:55;11.24;69.70
68943;DHT22;60852;52.190;4.422;2023-04-15T15:25:20;11.43;69.82
68943;DHT22;60852;52.190;4.422;2023-04-15T15:27:46;11.59;68.56
68943;DHT22;60852;52.190;4.422;2023-04-15T15:30:12;11.22;68.24
68943;DHT22;60852;52.190;4.422;2023-04-15T15:32:39;11.20;69.01
68943;DHT22;60852;52.190;4.422;2023-04-15T15:35:05;11.15;69.23
68943;DHT22;60852;52.190;4.422;2023-04-15T15:37:31;11.26;69.68
68943;DHT22;60852;52.190;4.422;2023-04-15T15:39:56;11.40;69.20
68943;DHT22;60852;52.190;4.422;2023-04-15T15:42:22;11.19;68.84
68943;DHT22;60852;52.190;4.422;2023-04-15T15:44:48;10.93;69.15